sensor_id;sensor_type;location;lat;lon;timestamp;temperature;humidity
62809;DHT22;48848;39.002;-94.584;2022-11-30T00:00:19;18.00;41.30
62809;DHT22;48848;39.002;-94.584;2022-11-30T00:02:46;18.20;40.90
62809;DHT22;48848;39.002;-94.584;2022-11-30T00:05:14;18.20;41.70
62809;DHT22;48848;39.002;-94.584;2022-11-30T00:07:40;18.00;41.80
62809;DHT22;48848;39.002;-94.584;2022-11-30T00:10:07;18.00;42.50
62809;DHT22;48848;39.002;-94.584;2022-11-30T00:12:33;18.10;42.10
62809;DHT22;48848;39.002;-94.584;2022-11-30T00:14:59;18.30;40.50
62809;DHT22;48848;39.002;-94.584;2022-11-30T00:17:26;18.50;41.50
62809;DHT22;48848;39.002;-94.584;2022-11-30T00:19:52;18.60;41.30
62809;DHT22;48848;39.002;-94.584;2022-11-30T00:22:18;18.80;40.20
62809;DHT22;48848;39.002;-94.584;2022-11-30T00:24:44;18.90;40.70
62809;DHT22;48848;39.002;-94.584;2022-11-30T00:27:10;19.00;40.40
62809;DHT22;48848;39.002;-94.584;2022-11-30T00:29:36;19.10;40.00
62809;DHT22;48848;39.002;-94.584;2022-11-30T00:32:03;19.20;39.70
62809;DHT22;48848;39.002;-94.584;2022-11-30T00:34:29;19.30;40.00
62809;DHT22;48848;39.002;-94.584;2022-11-30T00:36:55;19.10;39.70
62809;DHT22;48848;39.002;-94.584;2022-11-30T00:39:21;18.80;39.90
62809;DHT22;48848;39.002;-94.584;2022-11-30T00:41:47;18.50;39.60
62809;DHT22;48848;39.002;-94.584;2022-11-30T00:44:14;18.20;42.00
62809;DHT22;48848;39.002;-94.584;2022-11-30T00:46:40;18.10;42.60
62809;DHT22;48848;39.002;-94.584;2022-11-30T00:49:06;18.20;42.30
62809;DHT22;48848;39.002;-94.584;2022-11-30T00:51:32;18.40;41.60
62809;DHT22;48848;39.002;-94.584;2022-11-30T00:53:58;18.60;41.10
62809;DHT22;48848;39.002;-94.584;2022-11-30T00:56:25;18.80;41.20
62809;DHT22;48848;39.002;-94.584;2022-11-30T00:58:51;19.10;41.20
62809;DHT22;48848;39.002;-94.584;2022-11-30T01:01:17;19.10;40.10
62809;DHT22;48848;39.002;-94.584;2022-11-30T01:03:43;18.80;40.60
62809;DHT22;48848;39.002;-94.584;2022-11-30T01:06:10;18.50;40.80
62809;DHT22;48848;39.002;-94.584;2022-11-30T01:08:36;18.30;40.90
62809;DHT22;48848;39.002;-94.584;2022-11-30T01:11:11;18.10;41.90
62809;DHT22;48848;39.002;-94.584;2022-11-30T01:13:40;17.90;42.30
62809;DHT22;48848;39.002;-94.584;2022-11-30T01:16:16;17.80;40.70
62809;DHT22;48848;39.002;-94.584;2022-11-30T01:18:43;18.10;42.20
62809;DHT22;48848;39.002;-94.584;2022-11-30T01:21:11;18.40;41.40
62809;DHT22;48848;39.002;-94.584;2022-11-30T01:23:41;18.70;41.30
62809;DHT22;48848;39.002;-94.584;2022-11-30T01:26:08;18.80;40.30
62809;DHT22;48848;39.002;-94.584;2022-11-30T01:28:34;18.60;39.60
62809;DHT22;48848;39.002;-94.584;2022-11-30T01:31:06;18.40;41.10
62809;DHT22;48848;39.002;-94.584;2022-11-30T01:33:32;18.20;41.30
62809;DHT22;48848;39.002;-94.584;2022-11-30T01:36:04;17.90;40.20
62809;DHT22;48848;39.002;-94.584;2022-11-30T01:38:35;17.70;41.60
62809;DHT22;48848;39.002;-94.584;2022-11-30T01:41:03;17.50;41.60
62809;DHT22;48848;39.002;-94.584;2022-11-30T01:43:44;17.50;41.90
62809;DHT22;48848;39.002;-94.584;2022-11-30T01:46:33;17.70;41.40
62809;DHT22;48848;39.002;-94.584;2022-11-30T01:51:51;18.40;39.60
62809;DHT22;48848;39.002;-94.584;2022-11-30T01:54:23;18.30;39.10
62809;DHT22;48848;39.002;-94.584;2022-11-30T01:56:55;18.10;40.10
62809;DHT22;48848;39.002;-94.584;2022-11-30T01:59:23;17.80;40.30
62809;DHT22;48848;39.002;-94.584;2022-11-30T02:01:51;17.70;41.30
62809;DHT22;48848;39.002;-94.584;2022-11-30T02:06:46;17.40;41.80
62809;DHT22;48848;39.002;-94.584;2022-11-30T02:09:16;17.40;41.90
62809;DHT22;48848;39.002;-94.584;2022-11-30T02:11:43;17.40;41.40
62809;DHT22;48848;39.002;-94.584;2022-11-30T02:14:36;17.60;40.10
62809;DHT22;48848;39.002;-94.584;2022-11-30T02:29:12;17.50;40.10
62809;DHT22;48848;39.002;-94.584;2022-11-30T02:34:16;17.10;41.00
62809;DHT22;48848;39.002;-94.584;2022-11-30T02:36:45;17.10;39.30
62809;DHT22;48848;39.002;-94.584;2022-11-30T02:39:13;17.40;39.50
62809;DHT22;48848;39.002;-94.584;2022-11-30T02:41:39;17.70;40.20
62809;DHT22;48848;39.002;-94.584;2022-11-30T02:44:08;18.10;40.00
62809;DHT22;48848;39.002;-94.584;2022-11-30T02:52:07;17.50;41.20
62809;DHT22;48848;39.002;-94.584;2022-11-30T02:54:34;17.30;41.90
62809;DHT22;48848;39.002;-94.584;2022-11-30T02:57:01;17.20;40.90
62809;DHT22;48848;39.002;-94.584;2022-11-30T02:59:27;17.00;42.10
62809;DHT22;48848;39.002;-94.584;2022-11-30T03:01:53;17.00;41.60
62809;DHT22;48848;39.002;-94.584;2022-11-30T03:04:20;17.30;42.20
62809;DHT22;48848;39.002;-94.584;2022-11-30T03:06:46;17.70;41.40
62809;DHT22;48848;39.002;-94.584;2022-11-30T03:09:12;17.90;39.90
62809;DHT22;48848;39.002;-94.584;2022-11-30T03:11:39;18.10;40.40
62809;DHT22;48848;39.002;-94.584;2022-11-30T03:14:05;17.80;40.40
62809;DHT22;48848;39.002;-94.584;2022-11-30T03:16:31;17.70;41.40
62809;DHT22;48848;39.002;-94.584;2022-11-30T03:18:58;17.50;41.60
62809;DHT22;48848;39.002;-94.584;2022-11-30T03:21:24;17.30;42.50
62809;DHT22;48848;39.002;-94.584;2022-11-30T03:23:51;17.20;42.50
62809;DHT22;48848;39.002;-94.584;2022-11-30T03:26:17;17.10;42.70
62809;DHT22;48848;39.002;-94.584;2022-11-30T03:28:43;17.20;41.90
62809;DHT22;48848;39.002;-94.584;2022-11-30T03:31:13;17.50;41.70
62809;DHT22;48848;39.002;-94.584;2022-11-30T03:33:42;17.80;40.40
62809;DHT22;48848;39.002;-94.584;2022-11-30T03:36:10;18.10;40.50
62809;DHT22;48848;39.002;-94.584;2022-11-30T03:38:37;18.30;39.40
62809;DHT22;48848;39.002;-94.584;2022-11-30T03:41:21;18.10;39.00
62809;DHT22;48848;39.002;-94.584;2022-11-30T03:43:48;17.80;40.00
62809;DHT22;48848;39.002;-94.584;2022-11-30T03:46:14;17.60;40.90
62809;DHT22;48848;39.002;-94.584;2022-11-30T03:48:40;17.40;41.40
62809;DHT22;48848;39.002;-94.584;2022-11-30T03:51:07;17.20;41.60
62809;DHT22;48848;39.002;-94.584;2022-11-30T03:53:34;17.10;42.20
62809;DHT22;48848;39.002;-94.584;2022-11-30T03:56:03;16.90;42.40
62809;DHT22;48848;39.002;-94.584;2022-11-30T03:58:30;16.80;42.50
62809;DHT22;48848;39.002;-94.584;2022-11-30T04:01:00;16.70;41.90
62809;DHT22;48848;39.002;-94.584;2022-11-30T04:03:27;16.50;42.60
62809;DHT22;48848;39.002;-94.584;2022-11-30T04:05:54;16.30;41.30
62809;DHT22;48848;39.002;-94.584;2022-11-30T04:08:20;16.20;42.30
62809;DHT22;48848;39.002;-94.584;2022-11-30T04:10:50;16.10;43.30
62809;DHT22;48848;39.002;-94.584;2022-11-30T04:13:17;16.10;42.90
62809;DHT22;48848;39.002;-94.584;2022-11-30T04:15:45;16.00;43.10
62809;DHT22;48848;39.002;-94.584;2022-11-30T04:18:13;15.90;43.20
62809;DHT22;48848;39.002;-94.584;2022-11-30T04:20:39;15.80;41.10
62809;DHT22;48848;39.002;-94.584;2022-11-30T04:23:05;15.70;43.10
62809;DHT22;48848;39.002;-94.584;2022-11-30T04:25:32;15.60;43.20
62809;DHT22;48848;39.002;-94.584;2022-11-30T04:27:58;15.60;43.50
62809;DHT22;48848;39.002;-94.584;2022-11-30T04:30:24;15.60;43.30
62809;DHT22;48848;39.002;-94.584;2022-11-30T04:32:51;15.50;43.70
62809;DHT22;48848;39.002;-94.584;2022-11-30T04:35:17;15.40;43.00
62809;DHT22;48848;39.002;-94.584;2022-11-30T04:37:43;15.30;43.60
62809;DHT22;48848;39.002;-94.584;2022-11-30T04:40:09;15.30;44.20
62809;DHT22;48848;39.002;-94.584;2022-11-30T04:42:36;15.30;44.50
62809;DHT22;48848;39.002;-94.584;2022-11-30T04:45:02;15.30;44.40
62809;DHT22;48848;39.002;-94.584;2022-11-30T04:47:29;15.20;44.00
62809;DHT22;48848;39.002;-94.584;2022-11-30T04:49:55;15.20;44.50
62809;DHT22;48848;39.002;-94.584;2022-11-30T04:52:21;15.10;43.90
62809;DHT22;48848;39.002;-94.584;2022-11-30T04:54:47;15.10;44.10
62809;DHT22;48848;39.002;-94.584;2022-11-30T04:57:14;15.00;43.90
62809;DHT22;48848;39.002;-94.584;2022-11-30T04:59:40;15.00;44.00
62809;DHT22;48848;39.002;-94.584;2022-11-30T05:02:06;14.90;44.40
62809;DHT22;48848;39.002;-94.584;2022-11-30T05:04:32;15.10;43.80
62809;DHT22;48848;39.002;-94.584;2022-11-30T05:06:58;15.40;42.90
62809;DHT22;48848;39.002;-94.584;2022-11-30T05:09:24;15.40;42.60
62809;DHT22;48848;39.002;-94.584;2022-11-30T05:11:51;15.50;42.00
62809;DHT22;48848;39.002;-94.584;2022-11-30T05:14:17;15.50;41.30
62809;DHT22;48848;39.002;-94.584;2022-11-30T05:16:46;15.50;41.90
62809;DHT22;48848;39.002;-94.584;2022-11-30T05:19:13;15.40;41.60
62809;DHT22;48848;39.002;-94.584;2022-11-30T05:21:40;15.40;42.00
62809;DHT22;48848;39.002;-94.584;2022-11-30T05:24:07;15.40;42.10
62809;DHT22;48848;39.002;-94.584;2022-11-30T05:26:34;15.40;42.20
62809;DHT22;48848;39.002;-94.584;2022-11-30T05:29:02;15.40;42.10
62809;DHT22;48848;39.002;-94.584;2022-11-30T05:31:28;15.30;41.80
62809;DHT22;48848;39.002;-94.584;2022-11-30T05:33:54;15.30;41.20
62809;DHT22;48848;39.002;-94.584;2022-11-30T05:36:20;15.20;41.60
62809;DHT22;48848;39.002;-94.584;2022-11-30T05:38:47;15.20;41.80
62809;DHT22;48848;39.002;-94.584;2022-11-30T05:41:13;15.20;42.10
62809;DHT22;48848;39.002;-94.584;2022-11-30T05:43:40;15.10;42.10
62809;DHT22;48848;39.002;-94.584;2022-11-30T05:46:08;15.10;42.10
62809;DHT22;48848;39.002;-94.584;2022-11-30T05:48:35;15.10;41.60
62809;DHT22;48848;39.002;-94.584;2022-11-30T05:51:13;15.00;41.80
62809;DHT22;48848;39.002;-94.584;2022-11-30T05:53:43;15.00;41.50
62809;DHT22;48848;39.002;-94.584;2022-11-30T05:56:13;14.90;41.70
62809;DHT22;48848;39.002;-94.584;2022-11-30T05:58:39;14.90;41.90
62809;DHT22;48848;39.002;-94.584;2022-11-30T06:01:06;14.90;42.10
62809;DHT22;48848;39.002;-94.584;2022-11-30T06:03:33;14.90;42.00
62809;DHT22;48848;39.002;-94.584;2022-11-30T06:06:00;14.80;41.80
62809;DHT22;48848;39.002;-94.584;2022-11-30T06:08:27;14.70;42.30
62809;DHT22;48848;39.002;-94.584;2022-11-30T06:10:53;14.70;42.00
62809;DHT22;48848;39.002;-94.584;2022-11-30T06:13:19;14.70;42.60
62809;DHT22;48848;39.002;-94.584;2022-11-30T06:15:46;14.60;41.60
62809;DHT22;48848;39.002;-94.584;2022-11-30T06:18:12;14.60;40.80
62809;DHT22;48848;39.002;-94.584;2022-11-30T06:20:39;14.60;41.60
62809;DHT22;48848;39.002;-94.584;2022-11-30T06:23:05;14.50;41.40
62809;DHT22;48848;39.002;-94.584;2022-11-30T06:25:31;14.50;41.90
62809;DHT22;48848;39.002;-94.584;2022-11-30T06:27:58;14.40;42.10
62809;DHT22;48848;39.002;-94.584;2022-11-30T06:30:24;14.60;42.10
62809;DHT22;48848;39.002;-94.584;2022-11-30T06:32:51;14.90;41.40
62809;DHT22;48848;39.002;-94.584;2022-11-30T06:35:18;15.10;41.40
62809;DHT22;48848;39.002;-94.584;2022-11-30T06:37:44;15.10;40.30
62809;DHT22;48848;39.002;-94.584;2022-11-30T06:40:11;15.10;40.20
62809;DHT22;48848;39.002;-94.584;2022-11-30T06:42:38;15.00;40.80
62809;DHT22;48848;39.002;-94.584;2022-11-30T06:45:06;15.00;40.90
62809;DHT22;48848;39.002;-94.584;2022-11-30T06:47:32;14.80;41.20
62809;DHT22;48848;39.002;-94.584;2022-11-30T06:49:58;14.80;41.40
62809;DHT22;48848;39.002;-94.584;2022-11-30T06:52:24;14.70;42.00
62809;DHT22;48848;39.002;-94.584;2022-11-30T06:54:51;14.60;41.60
62809;DHT22;48848;39.002;-94.584;2022-11-30T06:57:17;14.60;42.10
62809;DHT22;48848;39.002;-94.584;2022-11-30T06:59:43;14.50;41.50
62809;DHT22;48848;39.002;-94.584;2022-11-30T07:02:12;14.50;41.80
62809;DHT22;48848;39.002;-94.584;2022-11-30T07:04:39;14.50;42.60
62809;DHT22;48848;39.002;-94.584;2022-11-30T07:07:05;14.60;42.40
62809;DHT22;48848;39.002;-94.584;2022-11-30T07:09:35;14.90;42.20
62809;DHT22;48848;39.002;-94.584;2022-11-30T07:12:02;15.20;41.50
62809;DHT22;48848;39.002;-94.584;2022-11-30T07:14:28;15.30;40.50
62809;DHT22;48848;39.002;-94.584;2022-11-30T07:16:56;15.30;40.40
62809;DHT22;48848;39.002;-94.584;2022-11-30T07:19:22;15.10;39.70
62809;DHT22;48848;39.002;-94.584;2022-11-30T07:21:48;15.00;39.90
62809;DHT22;48848;39.002;-94.584;2022-11-30T07:24:15;15.00;40.80
62809;DHT22;48848;39.002;-94.584;2022-11-30T07:27:01;14.90;41.60
62809;DHT22;48848;39.002;-94.584;2022-11-30T07:29:28;14.80;41.40
62809;DHT22;48848;39.002;-94.584;2022-11-30T07:31:54;14.70;41.40
62809;DHT22;48848;39.002;-94.584;2022-11-30T07:34:20;14.60;40.90
62809;DHT22;48848;39.002;-94.584;2022-11-30T07:36:47;14.60;41.60
62809;DHT22;48848;39.002;-94.584;2022-11-30T07:39:14;14.50;41.70
62809;DHT22;48848;39.002;-94.584;2022-11-30T07:41:41;14.70;41.70
62809;DHT22;48848;39.002;-94.584;2022-11-30T07:44:07;15.00;42.10
62809;DHT22;48848;39.002;-94.584;2022-11-30T07:46:35;15.30;41.10
62809;DHT22;48848;39.002;-94.584;2022-11-30T07:49:05;15.30;39.60
62809;DHT22;48848;39.002;-94.584;2022-11-30T07:51:32;15.30;39.60
62809;DHT22;48848;39.002;-94.584;2022-11-30T07:53:58;15.20;38.90
62809;DHT22;48848;39.002;-94.584;2022-11-30T07:56:26;15.10;40.00
62809;DHT22;48848;39.002;-94.584;2022-11-30T07:58:55;14.90;40.30
62809;DHT22;48848;39.002;-94.584;2022-11-30T08:01:23;14.90;40.90
62809;DHT22;48848;39.002;-94.584;2022-11-30T08:03:50;14.80;40.80
62809;DHT22;48848;39.002;-94.584;2022-11-30T08:06:22;14.70;41.10
62809;DHT22;48848;39.002;-94.584;2022-11-30T08:08:51;14.60;41.40
62809;DHT22;48848;39.002;-94.584;2022-11-30T08:11:19;14.50;41.40
62809;DHT22;48848;39.002;-94.584;2022-11-30T08:13:47;14.50;41.60
62809;DHT22;48848;39.002;-94.584;2022-11-30T08:16:18;14.70;41.90
62809;DHT22;48848;39.002;-94.584;2022-11-30T08:18:45;15.00;41.50
62809;DHT22;48848;39.002;-94.584;2022-11-30T08:21:14;15.30;41.60
62809;DHT22;48848;39.002;-94.584;2022-11-30T08:23:43;15.40;40.10
62809;DHT22;48848;39.002;-94.584;2022-11-30T08:26:18;15.30;39.40
62809;DHT22;48848;39.002;-94.584;2022-11-30T08:28:45;15.10;39.20
62809;DHT22;48848;39.002;-94.584;2022-11-30T08:31:14;15.00;39.10
62809;DHT22;48848;39.002;-94.584;2022-11-30T08:33:41;14.90;40.50
62809;DHT22;48848;39.002;-94.584;2022-11-30T08:36:15;14.80;41.00
62809;DHT22;48848;39.002;-94.584;2022-11-30T08:38:43;14.70;40.60
62809;DHT22;48848;39.002;-94.584;2022-11-30T08:41:12;14.60;41.00
62809;DHT22;48848;39.002;-94.584;2022-11-30T08:43:38;14.50;41.20
62809;DHT22;48848;39.002;-94.584;2022-11-30T08:46:07;14.50;41.00
62809;DHT22;48848;39.002;-94.584;2022-11-30T08:48:34;14.70;41.30
62809;DHT22;48848;39.002;-94.584;2022-11-30T08:51:02;15.00;40.80
62809;DHT22;48848;39.002;-94.584;2022-11-30T08:53:28;15.20;40.70
62809;DHT22;48848;39.002;-94.584;2022-11-30T08:56:00;15.40;40.00
62809;DHT22;48848;39.002;-94.584;2022-11-30T08:58:29;15.30;39.20
62809;DHT22;48848;39.002;-94.584;2022-11-30T09:01:05;15.20;40.10
62809;DHT22;48848;39.002;-94.584;2022-11-30T09:03:32;15.10;39.90
62809;DHT22;48848;39.002;-94.584;2022-11-30T09:06:13;14.90;40.50
62809;DHT22;48848;39.002;-94.584;2022-11-30T09:08:41;14.90;41.00
62809;DHT22;48848;39.002;-94.584;2022-11-30T09:11:13;14.80;40.80
62809;DHT22;48848;39.002;-94.584;2022-11-30T09:13:41;14.70;40.90
62809;DHT22;48848;39.002;-94.584;2022-11-30T09:16:08;14.60;41.40
62809;DHT22;48848;39.002;-94.584;2022-11-30T09:18:34;14.60;41.80
62809;DHT22;48848;39.002;-94.584;2022-11-30T09:21:06;14.80;41.90
62809;DHT22;48848;39.002;-94.584;2022-11-30T09:23:36;15.00;41.30
62809;DHT22;48848;39.002;-94.584;2022-11-30T09:26:05;15.20;40.80
62809;DHT22;48848;39.002;-94.584;2022-11-30T09:28:31;15.40;39.80
62809;DHT22;48848;39.002;-94.584;2022-11-30T09:31:02;15.20;38.20
62809;DHT22;48848;39.002;-94.584;2022-11-30T09:33:29;15.10;39.30
62809;DHT22;48848;39.002;-94.584;2022-11-30T09:36:02;15.00;40.00
62809;DHT22;48848;39.002;-94.584;2022-11-30T09:38:28;14.90;40.40
62809;DHT22;48848;39.002;-94.584;2022-11-30T09:41:00;14.90;40.40
62809;DHT22;48848;39.002;-94.584;2022-11-30T09:46:04;14.60;41.00
62809;DHT22;48848;39.002;-94.584;2022-11-30T09:49:00;14.60;41.90
62809;DHT22;48848;39.002;-94.584;2022-11-30T09:51:48;14.70;41.60
62809;DHT22;48848;39.002;-94.584;2022-11-30T09:54:30;15.00;40.80
62809;DHT22;48848;39.002;-94.584;2022-11-30T09:59:58;15.40;39.00
62809;DHT22;48848;39.002;-94.584;2022-11-30T10:02:36;15.30;38.50
62809;DHT22;48848;39.002;-94.584;2022-11-30T10:05:21;15.10;39.60
62809;DHT22;48848;39.002;-94.584;2022-11-30T10:07:56;15.00;39.80
62809;DHT22;48848;39.002;-94.584;2022-11-30T10:15:50;14.70;40.60
62809;DHT22;48848;39.002;-94.584;2022-11-30T10:27:56;15.20;40.50
62809;DHT22;48848;39.002;-94.584;2022-11-30T10:29:57;15.40;39.70
62809;DHT22;48848;39.002;-94.584;2022-11-30T10:32:34;15.30;39.00
62809;DHT22;48848;39.002;-94.584;2022-11-30T10:35:34;15.20;39.10
62809;DHT22;48848;39.002;-94.584;2022-11-30T10:38:10;15.00;39.60
62809;DHT22;48848;39.002;-94.584;2022-11-30T10:41:16;14.90;40.10
62809;DHT22;48848;39.002;-94.584;2022-11-30T10:43:49;14.80;40.40
62809;DHT22;48848;39.002;-94.584;2022-11-30T10:46:38;14.70;40.80
62809;DHT22;48848;39.002;-94.584;2022-11-30T10:49:18;14.60;41.50
62809;DHT22;48848;39.002;-94.584;2022-11-30T10:51:50;14.70;41.20
62809;DHT22;48848;39.002;-94.584;2022-11-30T10:54:20;14.90;41.30
62809;DHT22;48848;39.002;-94.584;2022-11-30T10:56:47;15.20;40.10
62809;DHT22;48848;39.002;-94.584;2022-11-30T10:59:26;15.40;40.00
62809;DHT22;48848;39.002;-94.584;2022-11-30T11:01:54;15.40;39.10
62809;DHT22;48848;39.002;-94.584;2022-11-30T11:04:24;15.30;38.90
62809;DHT22;48848;39.002;-94.584;2022-11-30T11:07:08;15.20;39.20
62809;DHT22;48848;39.002;-94.584;2022-11-30T11:09:44;15.00;39.50
62809;DHT22;48848;39.002;-94.584;2022-11-30T11:12:26;14.90;39.90
62809;DHT22;48848;39.002;-94.584;2022-11-30T11:15:08;14.80;39.40
62809;DHT22;48848;39.002;-94.584;2022-11-30T11:17:35;14.70;39.70
62809;DHT22;48848;39.002;-94.584;2022-11-30T11:20:01;14.60;40.70
62809;DHT22;48848;39.002;-94.584;2022-11-30T11:22:30;14.70;41.30
62809;DHT22;48848;39.002;-94.584;2022-11-30T11:25:20;14.90;41.30
62809;DHT22;48848;39.002;-94.584;2022-11-30T11:27:56;15.20;40.10
62809;DHT22;48848;39.002;-94.584;2022-11-30T11:35:48;15.40;39.20
62809;DHT22;48848;39.002;-94.584;2022-11-30T11:41:02;15.80;38.70
62809;DHT22;48848;39.002;-94.584;2022-11-30T11:43:32;15.90;38.20
62809;DHT22;48848;39.002;-94.584;2022-11-30T11:46:10;16.00;38.50
62809;DHT22;48848;39.002;-94.584;2022-11-30T11:51:36;16.40;37.80
62809;DHT22;48848;39.002;-94.584;2022-11-30T11:56:34;16.70;37.60
62809;DHT22;48848;39.002;-94.584;2022-11-30T12:01:56;17.00;37.10
62809;DHT22;48848;39.002;-94.584;2022-11-30T12:04:44;17.10;37.10
62809;DHT22;48848;39.002;-94.584;2022-11-30T12:12:38;16.70;36.90
62809;DHT22;48848;39.002;-94.584;2022-11-30T12:15:09;16.60;38.30
62809;DHT22;48848;39.002;-94.584;2022-11-30T12:21:19;16.80;37.20
62809;DHT22;48848;39.002;-94.584;2022-11-30T12:31:18;17.20;35.40
62809;DHT22;48848;39.002;-94.584;2022-11-30T12:37:20;16.90;36.70
62809;DHT22;48848;39.002;-94.584;2022-11-30T12:42:36;16.50;38.50
62809;DHT22;48848;39.002;-94.584;2022-11-30T12:45:18;16.60;38.30
62809;DHT22;48848;39.002;-94.584;2022-11-30T12:53:45;17.10;37.40
62809;DHT22;48848;39.002;-94.584;2022-11-30T13:04:49;16.70;37.50
62809;DHT22;48848;39.002;-94.584;2022-11-30T13:07:38;16.50;38.20
62809;DHT22;48848;39.002;-94.584;2022-11-30T13:12:37;16.50;38.60
62809;DHT22;48848;39.002;-94.584;2022-11-30T13:15:16;16.60;37.70
62809;DHT22;48848;39.002;-94.584;2022-11-30T13:17:44;16.70;37.80
62809;DHT22;48848;39.002;-94.584;2022-11-30T13:20:15;16.80;37.00
62809;DHT22;48848;39.002;-94.584;2022-11-30T13:22:47;17.00;37.10
62809;DHT22;48848;39.002;-94.584;2022-11-30T13:28:03;16.50;37.50
62809;DHT22;48848;39.002;-94.584;2022-11-30T13:30:49;16.10;38.20
62809;DHT22;48848;39.002;-94.584;2022-11-30T13:36:06;15.70;41.40
62809;DHT22;48848;39.002;-94.584;2022-11-30T13:38:46;15.50;39.10
62809;DHT22;48848;39.002;-94.584;2022-11-30T13:41:19;15.70;39.90
62809;DHT22;48848;39.002;-94.584;2022-11-30T13:43:49;16.00;39.70
62809;DHT22;48848;39.002;-94.584;2022-11-30T13:46:20;16.30;38.60
62809;DHT22;48848;39.002;-94.584;2022-11-30T13:48:47;16.60;38.50
62809;DHT22;48848;39.002;-94.584;2022-11-30T13:51:34;16.60;38.20
62809;DHT22;48848;39.002;-94.584;2022-11-30T14:05:44;15.30;39.70
62809;DHT22;48848;39.002;-94.584;2022-11-30T14:26:16;15.80;40.50
62809;DHT22;48848;39.002;-94.584;2022-11-30T14:28:51;15.60;40.10
62809;DHT22;48848;39.002;-94.584;2022-11-30T14:31:24;15.40;41.40
62809;DHT22;48848;39.002;-94.584;2022-11-30T14:33:59;15.30;40.00
62809;DHT22;48848;39.002;-94.584;2022-11-30T14:36:32;15.60;41.20
62809;DHT22;48848;39.002;-94.584;2022-11-30T14:39:00;15.80;39.20
62809;DHT22;48848;39.002;-94.584;2022-11-30T14:41:28;16.10;38.90
62809;DHT22;48848;39.002;-94.584;2022-11-30T14:44:09;16.40;37.80
62809;DHT22;48848;39.002;-94.584;2022-11-30T14:46:37;16.30;37.00
62809;DHT22;48848;39.002;-94.584;2022-11-30T14:49:19;16.10;38.30
62809;DHT22;48848;39.002;-94.584;2022-11-30T14:51:57;15.80;39.30
62809;DHT22;48848;39.002;-94.584;2022-11-30T14:54:44;15.60;40.20
62809;DHT22;48848;39.002;-94.584;2022-11-30T14:57:51;15.50;39.90
62809;DHT22;48848;39.002;-94.584;2022-11-30T15:00:20;15.20;39.90
62809;DHT22;48848;39.002;-94.584;2022-11-30T15:02:48;15.30;39.30
62809;DHT22;48848;39.002;-94.584;2022-11-30T15:05:23;15.60;40.00
62809;DHT22;48848;39.002;-94.584;2022-11-30T15:07:52;15.50;39.30
62809;DHT22;48848;39.002;-94.584;2022-11-30T15:10:27;15.30;38.60
62809;DHT22;48848;39.002;-94.584;2022-11-30T15:12:55;15.20;40.70
62809;DHT22;48848;39.002;-94.584;2022-11-30T15:15:25;15.10;41.80
62809;DHT22;48848;39.002;-94.584;2022-11-30T15:17:55;15.00;41.40
62809;DHT22;48848;39.002;-94.584;2022-11-30T15:20:27;14.90;41.70
62809;DHT22;48848;39.002;-94.584;2022-11-30T15:22:57;14.90;41.90
62809;DHT22;48848;39.002;-94.584;2022-11-30T15:25:33;14.80;42.20
62809;DHT22;48848;39.002;-94.584;2022-11-30T15:28:01;14.60;40.40
62809;DHT22;48848;39.002;-94.584;2022-11-30T15:30:30;14.50;40.80
62809;DHT22;48848;39.002;-94.584;2022-11-30T15:32:57;14.70;44.20
62809;DHT22;48848;39.002;-94.584;2022-11-30T15:35:25;14.50;42.40
62809;DHT22;48848;39.002;-94.584;2022-11-30T15:37:52;14.40;42.20
62809;DHT22;48848;39.002;-94.584;2022-11-30T15:40:31;14.40;42.60
62809;DHT22;48848;39.002;-94.584;2022-11-30T15:42:59;14.30;41.30
62809;DHT22;48848;39.002;-94.584;2022-11-30T15:45:33;14.30;42.30
62809;DHT22;48848;39.002;-94.584;2022-11-30T15:48:27;14.20;43.10
62809;DHT22;48848;39.002;-94.584;2022-11-30T15:50:53;14.20;42.40
62809;DHT22;48848;39.002;-94.584;2022-11-30T15:53:24;14.10;42.00
62809;DHT22;48848;39.002;-94.584;2022-11-30T15:56:00;14.10;42.60
62809;DHT22;48848;39.002;-94.584;2022-11-30T15:58:33;14.30;42.30
62809;DHT22;48848;39.002;-94.584;2022-11-30T16:01:03;15.10;40.50
62809;DHT22;48848;39.002;-94.584;2022-11-30T16:03:46;15.60;39.30
62809;DHT22;48848;39.002;-94.584;2022-11-30T16:06:46;16.00;38.10
62809;DHT22;48848;39.002;-94.584;2022-11-30T16:09:25;16.00;38.00
62809;DHT22;48848;39.002;-94.584;2022-11-30T16:11:57;15.80;37.50
62809;DHT22;48848;39.002;-94.584;2022-11-30T16:14:25;15.60;38.90
62809;DHT22;48848;39.002;-94.584;2022-11-30T16:16:51;15.40;39.00
62809;DHT22;48848;39.002;-94.584;2022-11-30T16:19:20;15.30;39.90
62809;DHT22;48848;39.002;-94.584;2022-11-30T16:21:48;15.20;40.20
62809;DHT22;48848;39.002;-94.584;2022-11-30T16:24:15;15.10;40.80
62809;DHT22;48848;39.002;-94.584;2022-11-30T16:26:42;15.00;40.80
62809;DHT22;48848;39.002;-94.584;2022-11-30T16:29:08;14.90;39.50
62809;DHT22;48848;39.002;-94.584;2022-11-30T16:31:35;14.80;38.70
62809;DHT22;48848;39.002;-94.584;2022-11-30T16:34:03;14.70;39.00
62809;DHT22;48848;39.002;-94.584;2022-11-30T16:36:29;15.10;42.60
62809;DHT22;48848;39.002;-94.584;2022-11-30T16:38:55;15.40;39.10
62809;DHT22;48848;39.002;-94.584;2022-11-30T16:41:24;15.90;39.30
62809;DHT22;48848;39.002;-94.584;2022-11-30T16:43:54;16.20;38.50
62809;DHT22;48848;39.002;-94.584;2022-11-30T16:46:26;16.10;38.90
62809;DHT22;48848;39.002;-94.584;2022-11-30T16:48:53;15.90;38.80
62809;DHT22;48848;39.002;-94.584;2022-11-30T16:51:26;15.80;39.70
62809;DHT22;48848;39.002;-94.584;2022-11-30T16:53:53;15.60;37.40
62809;DHT22;48848;39.002;-94.584;2022-11-30T16:56:19;15.60;40.90
62809;DHT22;48848;39.002;-94.584;2022-11-30T16:58:46;15.60;40.40
62809;DHT22;48848;39.002;-94.584;2022-11-30T17:01:39;15.40;39.70
62809;DHT22;48848;39.002;-94.584;2022-11-30T17:04:18;15.40;40.20
62809;DHT22;48848;39.002;-94.584;2022-11-30T17:06:45;15.30;39.90
62809;DHT22;48848;39.002;-94.584;2022-11-30T17:09:12;15.20;39.70
62809;DHT22;48848;39.002;-94.584;2022-11-30T17:11:40;15.20;39.80
62809;DHT22;48848;39.002;-94.584;2022-11-30T17:14:08;15.40;39.80
62809;DHT22;48848;39.002;-94.584;2022-11-30T17:16:35;15.80;38.50
62809;DHT22;48848;39.002;-94.584;2022-11-30T17:19:01;16.20;36.60
62809;DHT22;48848;39.002;-94.584;2022-11-30T17:21:32;16.40;38.30
62809;DHT22;48848;39.002;-94.584;2022-11-30T17:23:59;16.40;38.30
62809;DHT22;48848;39.002;-94.584;2022-11-30T17:26:26;16.20;37.90
62809;DHT22;48848;39.002;-94.584;2022-11-30T17:28:52;16.00;38.30
62809;DHT22;48848;39.002;-94.584;2022-11-30T17:31:19;15.90;38.40
62809;DHT22;48848;39.002;-94.584;2022-11-30T17:33:45;15.80;39.20
62809;DHT22;48848;39.002;-94.584;2022-11-30T17:36:13;15.80;39.40